createdAt,value
2022-09-18T00:01:41.652Z,10.79
2022-09-18T00:04:13.119Z,10.78
2022-09-18T00:06:43.147Z,10.78
2022-09-18T00:09:14.007Z,10.77
2022-09-18T00:11:43.938Z,10.76
2022-09-18T00:14:14.455Z,10.76
2022-09-18T00:16:43.262Z,10.76
2022-09-18T00:19:12.165Z,10.75
2022-09-18T00:21:42.366Z,10.74
2022-09-18T00:24:11.621Z,10.73
2022-09-18T00:26:41.243Z,10.72
2022-09-18T00:29:11.373Z,10.72
2022-09-18T00:31:40.250Z,10.72
2022-09-18T00:34:12.497Z,10.71
2022-09-18T00:36:41.657Z,10.70
2022-09-18T00:39:14.122Z,10.68
2022-09-18T00:41:43.611Z,10.67
2022-09-18T00:44:35.211Z,10.66
2022-09-18T00:47:16.716Z,10.65
2022-09-18T00:49:47.800Z,10.64
2022-09-18T00:52:18.241Z,10.63
2022-09-18T00:54:49.366Z,10.64
2022-09-18T00:57:20.042Z,10.65
2022-09-18T00:59:50.491Z,10.66
2022-09-18T01:02:19.266Z,10.68
2022-09-18T01:04:47.786Z,10.69
2022-09-18T01:07:28.581Z,10.69
2022-09-18T01:10:03.681Z,10.69
2022-09-18T01:12:37.949Z,10.70
2022-09-18T01:15:10.877Z,10.68
2022-09-18T01:17:44.237Z,10.68
2022-09-18T01:20:30.496Z,10.68
2022-09-18T01:23:12.202Z,10.69
2022-09-18T01:25:50.583Z,10.69
2022-09-18T01:28:23.767Z,10.69
2022-09-18T01:30:57.821Z,10.69
2022-09-18T01:33:29.996Z,10.68
2022-09-18T01:36:00.149Z,10.68
2022-09-18T01:38:30.806Z,10.69
2022-09-18T01:41:03.176Z,10.69
2022-09-18T01:43:32.426Z,10.68
2022-09-18T01:46:03.914Z,10.67
2022-09-18T01:48:36.136Z,10.65
2022-09-18T01:51:10.106Z,10.64
2022-09-18T01:53:41.853Z,10.63
2022-09-18T01:56:13.737Z,10.62
2022-09-18T01:58:42.775Z,10.62
2022-09-18T02:01:13.297Z,10.61
2022-09-18T02:03:45.159Z,10.60
2022-09-18T02:06:16.449Z,10.58
2022-09-18T02:08:47.651Z,10.57
2022-09-18T02:11:17.367Z,10.55
2022-09-18T02:13:49.896Z,10.54
2022-09-18T02:16:22.649Z,10.52
2022-09-18T02:18:53.726Z,10.51
2022-09-18T02:21:25.902Z,10.50
2022-09-18T02:23:56.640Z,10.49
2022-09-18T02:26:25.125Z,10.48
2022-09-18T02:28:54.310Z,10.47
2022-09-18T02:31:22.793Z,10.47
2022-09-18T02:33:52.816Z,10.47
2022-09-18T02:36:32.493Z,10.47
2022-09-18T02:39:10.340Z,10.47
2022-09-18T02:41:44.050Z,10.48
2022-09-18T02:44:17.167Z,10.48
2022-09-18T02:46:54.590Z,10.50
2022-09-18T02:49:35.451Z,10.50
2022-09-18T02:52:06.349Z,10.50
2022-09-18T02:54:40.704Z,10.50
2022-09-18T02:57:13.436Z,10.50
2022-09-18T02:59:44.739Z,10.51
2022-09-18T03:02:14.026Z,10.52
2022-09-18T03:04:42.542Z,10.52
2022-09-18T03:07:13.978Z,10.53
2022-09-18T03:09:42.260Z,10.52
2022-09-18T03:12:11.026Z,10.51
2022-09-18T03:14:39.676Z,10.52
2022-09-18T03:17:08.781Z,10.51
2022-09-18T03:19:37.508Z,10.50
2022-09-18T03:22:05.875Z,10.49
2022-09-18T03:24:34.228Z,10.47
2022-09-18T03:27:02.803Z,10.47
2022-09-18T03:29:31.039Z,10.45
2022-09-18T03:31:59.160Z,10.45
2022-09-18T03:34:27.836Z,10.45
2022-09-18T03:36:56.116Z,10.45
2022-09-18T03:39:24.415Z,10.47
2022-09-18T03:41:53.396Z,10.48
2022-09-18T03:44:21.566Z,10.49
2022-09-18T03:46:49.791Z,10.50
2022-09-18T03:49:18.094Z,10.52
2022-09-18T03:51:46.230Z,10.53
2022-09-18T03:54:14.921Z,10.53
2022-09-18T03:56:43.363Z,10.53
2022-09-18T03:59:11.559Z,10.54
2022-09-18T04:01:39.883Z,10.54
2022-09-18T04:04:08.350Z,10.54
2022-09-18T04:06:36.592Z,10.53
2022-09-18T04:09:04.972Z,10.54
2022-09-18T04:11:33.803Z,10.54
2022-09-18T04:14:02.336Z,10.55
2022-09-18T04:16:31.132Z,10.56
2022-09-18T04:18:59.634Z,10.57
2022-09-18T04:21:27.722Z,10.57
2022-09-18T04:23:59.720Z,10.57
2022-09-18T04:26:28.270Z,10.57
2022-09-18T04:28:56.398Z,10.56
2022-09-18T04:31:24.745Z,10.58
2022-09-18T04:33:53.213Z,10.59
2022-09-18T04:36:24.429Z,10.59
2022-09-18T04:38:54.439Z,10.60
2022-09-18T04:41:22.902Z,10.62
2022-09-18T04:43:51.272Z,10.62
2022-09-18T04:46:19.610Z,10.63
2022-09-18T04:48:49.576Z,10.65
2022-09-18T04:51:17.995Z,10.66
2022-09-18T04:53:46.323Z,10.67
2022-09-18T04:56:14.688Z,10.67
2022-09-18T04:58:42.940Z,10.67
2022-09-18T05:01:11.629Z,10.68
2022-09-18T05:03:40.047Z,10.66
2022-09-18T05:06:08.570Z,10.64
2022-09-18T05:08:38.243Z,10.62
2022-09-18T05:11:07.368Z,10.61
2022-09-18T05:13:35.481Z,10.60
2022-09-18T05:16:06.500Z,10.60
2022-09-18T05:18:35.323Z,10.59
2022-09-18T05:21:04.317Z,10.58
2022-09-18T05:23:34.039Z,10.56
2022-09-18T05:26:02.942Z,10.54
2022-09-18T05:28:31.205Z,10.52
2022-09-18T05:31:00.567Z,10.51
2022-09-18T05:33:29.917Z,10.50
2022-09-18T05:35:58.967Z,10.49
2022-09-18T05:38:27.601Z,10.48
2022-09-18T05:41:00.749Z,10.48
2022-09-18T05:43:29.495Z,10.48
2022-09-18T05:46:00.803Z,10.47
2022-09-18T05:48:29.083Z,10.47
2022-09-18T05:50:57.738Z,10.48
2022-09-18T05:53:26.261Z,10.49
2022-09-18T05:55:54.573Z,10.50
2022-09-18T05:58:23.562Z,10.51
2022-09-18T06:00:54.953Z,10.49
2022-09-18T06:03:23.184Z,10.47
2022-09-18T06:05:55.497Z,10.46
2022-09-18T06:08:23.753Z,10.43
2022-09-18T06:10:54.152Z,10.42
2022-09-18T06:13:22.315Z,10.41
2022-09-18T06:15:52.574Z,10.41
2022-09-18T06:18:21.079Z,10.41
2022-09-18T06:20:54.366Z,10.41
2022-09-18T06:23:23.750Z,10.42
2022-09-18T06:25:58.578Z,10.42
2022-09-18T06:28:27.197Z,10.42
2022-09-18T06:30:55.609Z,10.43
2022-09-18T06:33:23.924Z,10.44
2022-09-18T06:35:52.318Z,10.45
2022-09-18T06:38:20.611Z,10.45
2022-09-18T06:40:49.841Z,10.45
2022-09-18T06:43:19.822Z,10.44
2022-09-18T06:45:55.553Z,10.44
2022-09-18T06:48:24.441Z,10.44
2022-09-18T06:50:53.671Z,10.46
2022-09-18T06:53:22.736Z,10.48
2022-09-18T06:55:51.629Z,10.49
2022-09-18T06:58:20.680Z,10.48
2022-09-18T07:00:49.041Z,10.49
2022-09-18T07:03:17.346Z,10.49
2022-09-18T07:05:46.268Z,10.47
2022-09-18T07:08:14.940Z,10.46
2022-09-18T07:10:43.196Z,10.45
2022-09-18T07:13:12.104Z,10.44
2022-09-18T07:15:40.210Z,10.42
2022-09-18T07:18:09.527Z,10.40
2022-09-18T07:20:37.752Z,10.38
2022-09-18T07:23:06.008Z,10.34
2022-09-18T07:25:34.252Z,10.30
2022-09-18T07:28:07.250Z,10.27
2022-09-18T07:30:36.334Z,10.22
2022-09-18T07:33:06.557Z,10.18
2022-09-18T07:35:34.932Z,10.14
2022-09-18T07:38:05.674Z,10.12
2022-09-18T07:40:34.599Z,10.12
2022-09-18T07:43:05.659Z,10.13
2022-09-18T07:45:34.789Z,10.12
2022-09-18T07:48:05.078Z,10.10
2022-09-18T07:50:33.652Z,10.10
2022-09-18T07:53:05.063Z,10.09
2022-09-18T07:55:35.695Z,10.12
2022-09-18T07:58:06.080Z,10.13
2022-09-18T08:00:36.142Z,10.13
2022-09-18T08:03:05.789Z,10.11
2022-09-18T08:05:34.240Z,10.10
2022-09-18T08:08:06.904Z,10.09
2022-09-18T08:10:35.885Z,10.09
2022-09-18T08:13:04.674Z,10.09
2022-09-18T08:15:33.666Z,10.10
2022-09-18T08:18:02.038Z,10.08
2022-09-18T08:20:30.275Z,10.04
2022-09-18T08:22:58.667Z,10.01
2022-09-18T08:25:27.577Z,10.00
2022-09-18T08:28:00.357Z,10.03
2022-09-18T08:30:29.666Z,10.05
2022-09-18T08:33:05.127Z,10.04
2022-09-18T08:35:34.971Z,10.01
2022-09-18T08:38:04.763Z,9.99
2022-09-18T08:41:04.737Z,9.98
2022-09-18T08:43:49.917Z,9.98
2022-09-18T08:46:22.816Z,10.00
2022-09-18T08:48:58.753Z,10.00
2022-09-18T08:51:30.378Z,9.99
2022-09-18T08:54:07.167Z,10.00
2022-09-18T08:56:36.799Z,10.00
2022-09-18T08:59:09.971Z,10.01
2022-09-18T09:01:43.351Z,10.05
2022-09-18T09:04:19.449Z,10.06
2022-09-18T09:06:59.197Z,10.07
2022-09-18T09:09:49.387Z,10.10
2022-09-18T09:12:25.569Z,10.16
2022-09-18T09:15:11.736Z,10.22
2022-09-18T09:17:42.166Z,10.31
2022-09-18T09:20:20.707Z,10.43
2022-09-18T09:22:56.967Z,10.54
2022-09-18T09:25:32.587Z,10.67
2022-09-18T09:28:12.297Z,10.80
2022-09-18T09:30:46.497Z,10.94
2022-09-18T09:33:20.883Z,11.04
2022-09-18T09:35:52.371Z,11.09
2022-09-18T09:38:31.681Z,11.13
2022-09-18T09:41:06.623Z,11.21
2022-09-18T09:43:41.794Z,11.30
2022-09-18T09:46:20.762Z,11.38
2022-09-18T09:48:53.575Z,11.48
2022-09-18T09:51:28.009Z,11.61
2022-09-18T09:53:59.643Z,11.77
2022-09-18T09:56:33.135Z,11.91
2022-09-18T09:59:08.440Z,12.03
2022-09-18T10:01:42.427Z,12.13
2022-09-18T10:04:22.919Z,12.21
2022-09-18T10:06:56.514Z,12.24
2022-09-18T10:09:33.939Z,12.36
2022-09-18T10:12:09.039Z,12.46
2022-09-18T10:14:39.101Z,12.52
2022-09-18T10:17:09.354Z,12.53
2022-09-18T10:19:39.979Z,12.53
2022-09-18T10:22:11.947Z,12.56
2022-09-18T10:24:47.487Z,12.61
2022-09-18T10:27:16.875Z,12.69
2022-09-18T10:29:45.648Z,12.80
2022-09-18T10:32:32.799Z,12.89
2022-09-18T10:35:42.132Z,12.99
2022-09-18T10:38:30.126Z,13.09
2022-09-18T10:41:15.527Z,13.16
2022-09-18T10:43:54.900Z,13.25
2022-09-18T10:46:36.558Z,13.36
2022-09-18T10:49:20.054Z,13.47
2022-09-18T10:51:48.943Z,13.53
2022-09-18T10:54:22.647Z,13.60
2022-09-18T10:56:52.278Z,13.67
2022-09-18T10:59:37.277Z,13.65
2022-09-18T11:02:12.446Z,13.62
2022-09-18T11:04:42.858Z,13.61
2022-09-18T11:07:13.937Z,13.59
2022-09-18T11:09:47.009Z,13.58
2022-09-18T11:12:22.039Z,13.60
2022-09-18T11:14:58.619Z,13.64
2022-09-18T11:17:30.498Z,13.63
2022-09-18T11:20:02.899Z,13.63
2022-09-18T11:22:42.175Z,13.67
2022-09-18T11:25:22.510Z,13.79
2022-09-18T11:27:55.249Z,13.96
2022-09-18T11:30:26.480Z,14.06
2022-09-18T11:33:05.822Z,14.17
2022-09-18T11:35:45.339Z,14.17
2022-09-18T11:38:19.790Z,14.08
2022-09-18T11:40:51.733Z,14.01
2022-09-18T11:43:30.844Z,14.02
2022-09-18T11:46:12.152Z,14.08
2022-09-18T11:48:44.171Z,14.17
2022-09-18T11:51:26.059Z,14.27
2022-09-18T11:54:06.001Z,14.36
2022-09-18T11:56:37.272Z,14.40
2022-09-18T11:59:12.215Z,14.44
2022-09-18T12:01:46.171Z,14.53
2022-09-18T12:04:21.339Z,14.57
2022-09-18T12:06:57.747Z,14.62
2022-09-18T12:09:38.679Z,14.64
2022-09-18T12:12:11.053Z,14.59
2022-09-18T12:14:43.112Z,14.53
2022-09-18T12:17:18.082Z,14.43
2022-09-18T12:19:50.286Z,14.31
2022-09-18T12:22:23.616Z,14.19
2022-09-18T12:24:52.464Z,14.13
2022-09-18T12:27:27.774Z,14.07
2022-09-18T12:30:04.093Z,14.00
2022-09-18T12:32:45.959Z,13.92
2022-09-18T12:35:18.211Z,13.86
2022-09-18T12:37:57.498Z,13.81
2022-09-18T12:40:40.444Z,13.81
2022-09-18T12:43:21.968Z,13.79
2022-09-18T12:46:14.786Z,13.76
2022-09-18T12:48:53.888Z,13.78
2022-09-18T12:51:38.212Z,13.80
2022-09-18T12:54:27.573Z,13.77
2022-09-18T12:57:08.085Z,13.77
2022-09-18T12:59:52.038Z,13.78
2022-09-18T13:02:28.233Z,13.82
2022-09-18T13:05:00.821Z,13.88
2022-09-18T13:07:33.491Z,13.90
2022-09-18T13:10:07.018Z,13.91
2022-09-18T13:12:38.271Z,13.90
2022-09-18T13:15:14.886Z,13.85
2022-09-18T13:17:48.870Z,13.82
2022-09-18T13:20:22.888Z,13.78
2022-09-18T13:22:53.964Z,13.72
2022-09-18T13:25:28.372Z,13.63
2022-09-18T13:27:57.907Z,13.52
2022-09-18T13:30:28.464Z,13.41
2022-09-18T13:32:57.710Z,13.35
2022-09-18T13:35:30.187Z,13.33
2022-09-18T13:38:14.690Z,13.28
2022-09-18T13:40:45.061Z,13.21
2022-09-18T13:43:21.261Z,13.15
2022-09-18T13:45:49.826Z,13.09
2022-09-18T13:48:23.167Z,13.06
2022-09-18T13:50:55.283Z,13.04
2022-09-18T13:53:42.033Z,13.09
2022-09-18T13:56:12.436Z,13.20
2022-09-18T13:59:01.364Z,13.32
2022-09-18T14:02:01.848Z,13.36
2022-09-18T14:05:09.333Z,13.38
2022-09-18T14:08:15.566Z,13.49
2022-09-18T14:11:17.610Z,13.43
2022-09-18T14:13:54.724Z,13.36
2022-09-18T14:16:32.519Z,13.29
2022-09-18T14:19:07.062Z,13.21
2022-09-18T14:21:39.970Z,13.09
2022-09-18T14:24:38.565Z,12.96
2022-09-18T14:27:41.208Z,12.80
2022-09-18T14:30:18.432Z,12.60
2022-09-18T14:32:56.338Z,12.47
2022-09-18T14:35:35.915Z,12.41
2022-09-18T14:38:17.486Z,12.35
2022-09-18T14:40:52.848Z,12.30
2022-09-18T14:43:23.172Z,12.27
2022-09-18T14:45:51.689Z,12.23
2022-09-18T14:48:29.701Z,12.20
2022-09-18T14:51:06.779Z,12.16
2022-09-18T14:53:43.409Z,12.14
2022-09-18T14:56:15.588Z,12.09
2022-09-18T14:58:46.260Z,12.04
2022-09-18T15:01:17.181Z,11.99
2022-09-18T15:03:48.280Z,11.97
2022-09-18T15:06:20.921Z,11.96
2022-09-18T15:08:53.323Z,11.94
2022-09-18T15:11:25.102Z,11.95
2022-09-18T15:13:56.093Z,11.96
2022-09-18T15:16:28.482Z,11.96
2022-09-18T15:18:58.438Z,11.94
2022-09-18T15:21:33.027Z,11.91
2022-09-18T15:24:03.463Z,11.89
2022-09-18T15:26:36.262Z,11.87
2022-09-18T15:29:06.382Z,11.86
2022-09-18T15:31:36.912Z,11.86
2022-09-18T15:34:08.276Z,11.88
2022-09-18T15:36:39.396Z,11.89
2022-09-18T15:39:11.711Z,11.90
2022-09-18T15:41:42.339Z,11.89
2022-09-18T15:44:57.380Z,11.89
2022-09-18T15:47:32.159Z,11.90
2022-09-18T15:50:01.926Z,11.94
2022-09-18T15:52:37.184Z,11.97
2022-09-18T15:55:14.918Z,11.98
2022-09-18T15:57:48.567Z,11.96
2022-09-18T16:00:19.172Z,11.94
2022-09-18T16:02:51.736Z,11.91
2022-09-18T16:05:21.024Z,11.91
2022-09-18T16:07:52.862Z,11.90
2022-09-18T16:10:48.253Z,11.90
2022-09-18T16:13:31.382Z,11.90
2022-09-18T16:16:19.409Z,11.89
2022-09-18T16:18:55.392Z,11.88
2022-09-18T16:21:25.564Z,11.88
2022-09-18T16:23:55.683Z,11.88
2022-09-18T16:26:27.570Z,11.88
2022-09-18T16:28:58.307Z,11.87
2022-09-18T16:31:29.465Z,11.88
2022-09-18T16:34:01.660Z,11.88
2022-09-18T16:36:33.834Z,11.89
2022-09-18T16:39:07.302Z,11.89
2022-09-18T16:41:36.395Z,11.91
2022-09-18T16:44:06.112Z,11.92
2022-09-18T16:46:41.835Z,11.94
2022-09-18T16:49:10.632Z,11.95
2022-09-18T16:51:38.941Z,11.96
2022-09-18T16:54:07.984Z,11.97
2022-09-18T16:56:39.720Z,11.98
2022-09-18T16:59:08.096Z,12.01
2022-09-18T17:01:54.181Z,12.02
2022-09-18T17:04:26.525Z,12.03
2022-09-18T17:06:55.581Z,12.03
2022-09-18T17:09:24.284Z,12.05
2022-09-18T17:11:54.094Z,12.06
2022-09-18T17:14:22.932Z,12.07
2022-09-18T17:16:51.771Z,12.07
2022-09-18T17:19:20.909Z,12.07
2022-09-18T17:21:49.946Z,12.08
2022-09-18T17:24:23.835Z,12.08
2022-09-18T17:26:52.746Z,12.09
2022-09-18T17:29:21.488Z,12.10
2022-09-18T17:31:50.267Z,12.11
2022-09-18T17:34:21.756Z,12.10
2022-09-18T17:36:50.255Z,12.11
2022-09-18T17:39:18.587Z,12.11
2022-09-18T17:41:48.040Z,12.11
2022-09-18T17:44:16.377Z,12.11
2022-09-18T17:46:47.775Z,12.10
2022-09-18T17:49:16.951Z,12.08
2022-09-18T17:51:45.307Z,12.07
2022-09-18T17:54:13.819Z,12.06
2022-09-18T17:56:42.525Z,12.04
2022-09-18T17:59:13.408Z,12.02
2022-09-18T18:01:46.767Z,12.00
2022-09-18T18:04:15.902Z,12.00
2022-09-18T18:06:47.252Z,11.99
2022-09-18T18:09:16.356Z,11.98
2022-09-18T18:11:45.695Z,11.96
2022-09-18T18:14:14.499Z,11.94
2022-09-18T18:16:43.491Z,11.91
2022-09-18T18:19:12.850Z,11.89
2022-09-18T18:21:42.320Z,11.87
2022-09-18T18:24:14.661Z,11.84
2022-09-18T18:26:43.735Z,11.81
2022-09-18T18:29:20.792Z,11.79
2022-09-18T18:31:49.933Z,11.76
2022-09-18T18:34:20.542Z,11.69
2022-09-18T18:36:49.939Z,11.62
2022-09-18T18:39:19.823Z,11.56
2022-09-18T18:41:49.998Z,11.51
2022-09-18T18:44:18.315Z,11.45
2022-09-18T18:46:47.651Z,11.39
2022-09-18T18:49:16.574Z,11.32
2022-09-18T18:51:47.224Z,11.24
2022-09-18T18:54:17.307Z,11.18
2022-09-18T18:56:46.725Z,11.13
2022-09-18T18:59:17.943Z,11.09
2022-09-18T19:01:47.085Z,11.05
2022-09-18T19:04:18.784Z,11.03
2022-09-18T19:06:48.840Z,10.99
2022-09-18T19:09:20.741Z,10.99
2022-09-18T19:11:50.293Z,10.97
2022-09-18T19:14:20.608Z,10.96
2022-09-18T19:16:49.882Z,10.96
2022-09-18T19:19:20.383Z,10.96
2022-09-18T19:21:52.321Z,10.97
2022-09-18T19:24:21.648Z,10.95
2022-09-18T19:26:52.776Z,10.95
2022-09-18T19:29:22.145Z,10.96
2022-09-18T19:31:51.083Z,10.96
2022-09-18T19:34:21.523Z,10.97
2022-09-18T19:36:52.646Z,10.97
2022-09-18T19:39:24.244Z,10.97
2022-09-18T19:41:58.709Z,10.96
2022-09-18T19:44:37.227Z,10.94
2022-09-18T19:47:11.952Z,10.92
2022-09-18T19:49:40.521Z,10.90
2022-09-18T19:52:17.393Z,10.85
2022-09-18T19:54:46.702Z,10.80
2022-09-18T19:57:15.362Z,10.76
2022-09-18T19:59:43.829Z,10.71
2022-09-18T20:02:15.001Z,10.67
2022-09-18T20:04:43.772Z,10.64
2022-09-18T20:07:12.814Z,10.61
2022-09-18T20:09:42.015Z,10.56
2022-09-18T20:12:12.307Z,10.52
2022-09-18T20:14:41.642Z,10.47
2022-09-18T20:17:10.953Z,10.42
2022-09-18T20:19:39.327Z,10.37
2022-09-18T20:22:15.016Z,10.33
2022-09-18T20:24:44.169Z,10.30
2022-09-18T20:27:14.911Z,10.28
2022-09-18T20:29:43.714Z,10.25
2022-09-18T20:32:13.276Z,10.24
2022-09-18T20:34:47.906Z,10.24
2022-09-18T20:37:17.832Z,10.24
2022-09-18T20:39:48.389Z,10.23
2022-09-18T20:42:16.648Z,10.23
2022-09-18T20:44:45.521Z,10.22
2022-09-18T20:47:14.481Z,10.22
2022-09-18T20:49:45.802Z,10.22
2022-09-18T20:52:14.697Z,10.23
2022-09-18T20:54:43.271Z,10.21
2022-09-18T20:57:11.842Z,10.22
2022-09-18T20:59:40.893Z,10.22
2022-09-18T21:02:09.223Z,10.22
2022-09-18T21:04:37.558Z,10.23
2022-09-18T21:07:05.943Z,10.22
2022-09-18T21:09:34.487Z,10.24
2022-09-18T21:12:02.880Z,10.25
2022-09-18T21:14:32.309Z,10.27
2022-09-18T21:17:00.941Z,10.29
2022-09-18T21:19:29.361Z,10.30
2022-09-18T21:21:59.597Z,10.30
2022-09-18T21:24:28.554Z,10.31
2022-09-18T21:26:56.708Z,10.32
2022-09-18T21:29:27.077Z,10.32
2022-09-18T21:31:57.351Z,10.33
2022-09-18T21:34:27.162Z,10.34
2022-09-18T21:36:59.197Z,10.34
2022-09-18T21:39:28.955Z,10.34
2022-09-18T21:41:58.188Z,10.34
2022-09-18T21:44:28.233Z,10.34
2022-09-18T21:46:58.379Z,10.35
2022-09-18T21:49:28.720Z,10.34
2022-09-18T21:51:58.699Z,10.34
2022-09-18T21:54:27.489Z,10.35
2022-09-18T21:56:56.135Z,10.35
2022-09-18T21:59:26.082Z,10.35
2022-09-18T22:01:55.017Z,10.36
2022-09-18T22:04:25.917Z,10.35
2022-09-18T22:06:56.496Z,10.36
2022-09-18T22:09:26.648Z,10.35
2022-09-18T22:11:55.841Z,10.35
2022-09-18T22:14:27.992Z,10.35
2022-09-18T22:16:57.199Z,10.34
2022-09-18T22:19:25.815Z,10.34
2022-09-18T22:21:54.654Z,10.35
2022-09-18T22:24:25.004Z,10.33
2022-09-18T22:26:56.292Z,10.33
2022-09-18T22:29:26.738Z,10.32
2022-09-18T22:31:55.518Z,10.32
2022-09-18T22:34:27.130Z,10.32
2022-09-18T22:36:56.516Z,10.30
2022-09-18T22:39:25.578Z,10.30
2022-09-18T22:41:55.035Z,10.30
2022-09-18T22:44:23.351Z,10.30
2022-09-18T22:46:52.661Z,10.28
2022-09-18T22:49:22.390Z,10.28
2022-09-18T22:51:51.810Z,10.27
2022-09-18T22:54:24.120Z,10.26
2022-09-18T22:56:53.124Z,10.25
2022-09-18T22:59:23.534Z,10.24
2022-09-18T23:01:57.054Z,10.22
2022-09-18T23:04:28.394Z,10.21
2022-09-18T23:06:57.800Z,10.21
2022-09-18T23:09:26.457Z,10.20
2022-09-18T23:11:55.007Z,10.19
2022-09-18T23:14:25.619Z,10.17
2022-09-18T23:16:53.982Z,10.14
2022-09-18T23:19:25.358Z,10.10
2022-09-18T23:21:54.513Z,10.04
2022-09-18T23:24:23.163Z,10.01
2022-09-18T23:26:53.112Z,9.97
2022-09-18T23:29:24.766Z,9.94
2022-09-18T23:31:56.552Z,9.91
2022-09-18T23:34:27.192Z,9.88
2022-09-18T23:36:57.542Z,9.86
2022-09-18T23:39:28.534Z,9.84
2022-09-18T23:41:58.759Z,9.84
2022-09-18T23:44:29.611Z,9.83
2022-09-18T23:46:58.564Z,9.81
2022-09-18T23:49:27.070Z,9.81
2022-09-18T23:51:55.813Z,9.80
2022-09-18T23:54:25.493Z,9.79
2022-09-18T23:56:55.153Z,9.78
2022-09-18T23:59:24.879Z,9.78
